sensor_id;sensor_type;location;lat;lon;timestamp;temperature;humidity
8896;DHT22;4484;48.928;10.066;2024-01-30T00:00:26;1.30;99.90
8896;DHT22;4484;48.928;10.066;2024-01-30T00:02:53;1.30;99.90
8896;DHT22;4484;48.928;10.066;2024-01-30T00:05:19;1.20;99.90
8896;DHT22;4484;48.928;10.066;2024-01-30T00:07:46;1.20;99.90
8896;DHT22;4484;48.928;10.066;2024-01-30T00:10:13;1.20;99.90
8896;DHT22;4484;48.928;10.066;2024-01-30T00:12:40;1.20;99.90
8896;DHT22;4484;48.928;10.066;2024-01-30T00:15:07;1.20;99.90
8896;DHT22;4484;48.928;10.066;2024-01-30T00:17:36;1.10;99.90
8896;DHT22;4484;48.928;10.066;2024-01-30T00:20:04;1.00;99.90
8896;DHT22;4484;48.928;10.066;2024-01-30T00:22:32;0.90;99.90
8896;DHT22;4484;48.928;10.066;2024-01-30T00:24:59;0.90;99.90
8896;DHT22;4484;48.928;10.066;2024-01-30T00:27:26;0.90;99.90
8896;DHT22;4484;48.928;10.066;2024-01-30T00:29:54;1.00;99.90
8896;DHT22;4484;48.928;10.066;2024-01-30T00:32:21;1.00;99.90
8896;DHT22;4484;48.928;10.066;2024-01-30T00:34:49;0.90;99.90
8896;DHT22;4484;48.928;10.066;2024-01-30T00:37:16;0.80;99.90
8896;DHT22;4484;48.928;10.066;2024-01-30T00:39:43;0.70;99.90
8896;DHT22;4484;48.928;10.066;2024-01-30T00:42:10;0.70;99.90
8896;DHT22;4484;48.928;10.066;2024-01-30T00:44:37;0.70;99.90
8896;DHT22;4484;48.928;10.066;2024-01-30T00:47:05;0.60;99.90
8896;DHT22;4484;48.928;10.066;2024-01-30T00:49:32;0.60;99.90
8896;DHT22;4484;48.928;10.066;2024-01-30T00:52:00;0.50;99.90
8896;DHT22;4484;48.928;10.066;2024-01-30T00:54:27;0.40;99.90
8896;DHT22;4484;48.928;10.066;2024-01-30T00:56:54;0.40;99.90
8896;DHT22;4484;48.928;10.066;2024-01-30T00:59:21;0.30;99.90
8896;DHT22;4484;48.928;10.066;2024-01-30T01:01:47;0.30;99.90
8896;DHT22;4484;48.928;10.066;2024-01-30T01:04:15;0.20;99.90
8896;DHT22;4484;48.928;10.066;2024-01-30T01:06:41;0.20;99.90
8896;DHT22;4484;48.928;10.066;2024-01-30T01:09:11;0.10;99.90
8896;DHT22;4484;48.928;10.066;2024-01-30T01:11:39;0.10;99.90
8896;DHT22;4484;48.928;10.066;2024-01-30T01:14:06;0.00;99.90
8896;DHT22;4484;48.928;10.066;2024-01-30T01:16:34;-0.10;99.90
8896;DHT22;4484;48.928;10.066;2024-01-30T01:19:01;0.00;99.90
8896;DHT22;4484;48.928;10.066;2024-01-30T01:21:28;-0.10;99.90
8896;DHT22;4484;48.928;10.066;2024-01-30T01:23:55;-0.10;99.90
8896;DHT22;4484;48.928;10.066;2024-01-30T01:26:23;-0.20;99.90
8896;DHT22;4484;48.928;10.066;2024-01-30T01:28:50;-0.20;99.90
8896;DHT22;4484;48.928;10.066;2024-01-30T01:31:16;-0.30;99.90
8896;DHT22;4484;48.928;10.066;2024-01-30T01:33:45;-0.20;99.90
8896;DHT22;4484;48.928;10.066;2024-01-30T01:36:13;-0.20;99.90
8896;DHT22;4484;48.928;10.066;2024-01-30T01:38:40;-0.20;99.90
8896;DHT22;4484;48.928;10.066;2024-01-30T01:41:07;-0.20;99.90
8896;DHT22;4484;48.928;10.066;2024-01-30T01:43:34;-0.20;99.90
8896;DHT22;4484;48.928;10.066;2024-01-30T01:46:01;-0.20;99.90
8896;DHT22;4484;48.928;10.066;2024-01-30T01:48:28;-0.20;99.90
8896;DHT22;4484;48.928;10.066;2024-01-30T01:50:56;-0.20;99.90
8896;DHT22;4484;48.928;10.066;2024-01-30T01:53:23;-0.20;99.90
8896;DHT22;4484;48.928;10.066;2024-01-30T01:55:51;-0.20;99.90
8896;DHT22;4484;48.928;10.066;2024-01-30T01:58:20;-0.20;99.90
8896;DHT22;4484;48.928;10.066;2024-01-30T02:00:47;-0.20;99.90
8896;DHT22;4484;48.928;10.066;2024-01-30T02:03:17;-0.20;99.90
8896;DHT22;4484;48.928;10.066;2024-01-30T02:05:45;-0.20;99.90
8896;DHT22;4484;48.928;10.066;2024-01-30T02:08:12;-0.20;99.90
8896;DHT22;4484;48.928;10.066;2024-01-30T02:10:39;-0.10;99.90
8896;DHT22;4484;48.928;10.066;2024-01-30T02:13:06;-0.10;99.90
8896;DHT22;4484;48.928;10.066;2024-01-30T02:15:33;-0.10;99.90
8896;DHT22;4484;48.928;10.066;2024-01-30T02:18:00;-0.10;99.90
8896;DHT22;4484;48.928;10.066;2024-01-30T02:20:30;-0.10;99.90
8896;DHT22;4484;48.928;10.066;2024-01-30T02:22:59;0.00;99.90
8896;DHT22;4484;48.928;10.066;2024-01-30T02:25:35;0.00;99.90
8896;DHT22;4484;48.928;10.066;2024-01-30T02:28:02;0.10;99.90
8896;DHT22;4484;48.928;10.066;2024-01-30T02:30:29;0.10;99.90
8896;DHT22;4484;48.928;10.066;2024-01-30T02:32:56;0.10;99.90
8896;DHT22;4484;48.928;10.066;2024-01-30T02:35:23;0.00;99.90
8896;DHT22;4484;48.928;10.066;2024-01-30T02:37:50;0.00;99.90
8896;DHT22;4484;48.928;10.066;2024-01-30T02:40:17;0.00;99.90
8896;DHT22;4484;48.928;10.066;2024-01-30T02:42:44;0.00;99.90
8896;DHT22;4484;48.928;10.066;2024-01-30T02:45:11;0.00;99.90
8896;DHT22;4484;48.928;10.066;2024-01-30T02:47:39;0.00;99.90
8896;DHT22;4484;48.928;10.066;2024-01-30T02:50:06;-0.10;99.90
8896;DHT22;4484;48.928;10.066;2024-01-30T02:52:33;-0.10;99.90
8896;DHT22;4484;48.928;10.066;2024-01-30T02:55:00;-0.10;99.90
8896;DHT22;4484;48.928;10.066;2024-01-30T02:57:28;-0.20;99.90
8896;DHT22;4484;48.928;10.066;2024-01-30T02:59:55;-0.20;99.90
8896;DHT22;4484;48.928;10.066;2024-01-30T03:02:22;-0.30;99.90
8896;DHT22;4484;48.928;10.066;2024-01-30T03:04:49;-0.30;99.90
8896;DHT22;4484;48.928;10.066;2024-01-30T03:07:15;-0.30;99.90
8896;DHT22;4484;48.928;10.066;2024-01-30T03:09:42;-0.40;99.90
8896;DHT22;4484;48.928;10.066;2024-01-30T03:12:10;-0.40;99.90
8896;DHT22;4484;48.928;10.066;2024-01-30T03:14:37;-0.40;99.90
8896;DHT22;4484;48.928;10.066;2024-01-30T03:17:04;-0.50;99.90
8896;DHT22;4484;48.928;10.066;2024-01-30T03:19:31;-0.50;99.90
8896;DHT22;4484;48.928;10.066;2024-01-30T03:21:58;-0.50;99.90
8896;DHT22;4484;48.928;10.066;2024-01-30T03:24:26;-0.50;99.90
8896;DHT22;4484;48.928;10.066;2024-01-30T03:26:53;-0.50;99.90
8896;DHT22;4484;48.928;10.066;2024-01-30T03:29:20;-0.60;99.90
8896;DHT22;4484;48.928;10.066;2024-01-30T03:31:47;-0.60;99.90
8896;DHT22;4484;48.928;10.066;2024-01-30T03:34:14;-0.60;99.90
8896;DHT22;4484;48.928;10.066;2024-01-30T03:36:41;-0.60;99.90
8896;DHT22;4484;48.928;10.066;2024-01-30T03:39:08;-0.70;99.90
8896;DHT22;4484;48.928;10.066;2024-01-30T03:41:35;-0.70;99.90
8896;DHT22;4484;48.928;10.066;2024-01-30T03:44:02;-0.70;99.90
8896;DHT22;4484;48.928;10.066;2024-01-30T03:46:29;-0.80;99.90
8896;DHT22;4484;48.928;10.066;2024-01-30T03:48:55;-0.80;99.90
8896;DHT22;4484;48.928;10.066;2024-01-30T03:51:22;-0.80;99.90
8896;DHT22;4484;48.928;10.066;2024-01-30T03:53:49;-0.90;99.90
8896;DHT22;4484;48.928;10.066;2024-01-30T03:56:16;-0.90;99.90
8896;DHT22;4484;48.928;10.066;2024-01-30T03:58:43;-0.90;99.90
8896;DHT22;4484;48.928;10.066;2024-01-30T04:01:14;-0.90;99.90
8896;DHT22;4484;48.928;10.066;2024-01-30T04:03:41;-1.00;99.90
8896;DHT22;4484;48.928;10.066;2024-01-30T04:06:10;-1.00;99.90
8896;DHT22;4484;48.928;10.066;2024-01-30T04:08:37;-1.00;99.90
8896;DHT22;4484;48.928;10.066;2024-01-30T04:11:05;-1.00;99.90
8896;DHT22;4484;48.928;10.066;2024-01-30T04:13:34;-1.00;99.90
8896;DHT22;4484;48.928;10.066;2024-01-30T04:16:02;-1.10;99.90
8896;DHT22;4484;48.928;10.066;2024-01-30T04:18:30;-1.10;99.90
8896;DHT22;4484;48.928;10.066;2024-01-30T04:20:57;-1.10;99.90
8896;DHT22;4484;48.928;10.066;2024-01-30T04:23:23;-1.10;99.90
8896;DHT22;4484;48.928;10.066;2024-01-30T04:25:50;-1.10;99.90
8896;DHT22;4484;48.928;10.066;2024-01-30T04:28:18;-1.10;99.90
8896;DHT22;4484;48.928;10.066;2024-01-30T04:30:45;-1.20;99.90
8896;DHT22;4484;48.928;10.066;2024-01-30T04:33:12;-1.20;99.90
8896;DHT22;4484;48.928;10.066;2024-01-30T04:35:39;-1.20;99.90
8896;DHT22;4484;48.928;10.066;2024-01-30T04:38:06;-1.20;99.90
8896;DHT22;4484;48.928;10.066;2024-01-30T04:40:33;-1.20;99.90
8896;DHT22;4484;48.928;10.066;2024-01-30T04:43:00;-1.20;99.90
8896;DHT22;4484;48.928;10.066;2024-01-30T04:45:27;-1.20;99.90
8896;DHT22;4484;48.928;10.066;2024-01-30T04:47:54;-1.20;99.90
8896;DHT22;4484;48.928;10.066;2024-01-30T04:50:20;-1.20;99.90
8896;DHT22;4484;48.928;10.066;2024-01-30T04:52:47;-1.20;99.90
8896;DHT22;4484;48.928;10.066;2024-01-30T04:55:14;-1.30;99.90
8896;DHT22;4484;48.928;10.066;2024-01-30T04:57:41;-1.30;99.90
8896;DHT22;4484;48.928;10.066;2024-01-30T05:00:09;-1.30;99.90
8896;DHT22;4484;48.928;10.066;2024-01-30T05:02:36;-1.30;99.90
8896;DHT22;4484;48.928;10.066;2024-01-30T05:05:03;-1.30;99.90
8896;DHT22;4484;48.928;10.066;2024-01-30T05:07:30;-1.30;99.90
8896;DHT22;4484;48.928;10.066;2024-01-30T05:09:57;-1.30;99.90
8896;DHT22;4484;48.928;10.066;2024-01-30T05:12:26;-1.30;99.90
8896;DHT22;4484;48.928;10.066;2024-01-30T05:14:53;-1.30;99.90
8896;DHT22;4484;48.928;10.066;2024-01-30T05:17:20;-1.30;99.90
8896;DHT22;4484;48.928;10.066;2024-01-30T05:19:47;-1.30;99.90
8896;DHT22;4484;48.928;10.066;2024-01-30T05:22:14;-1.30;99.90
8896;DHT22;4484;48.928;10.066;2024-01-30T05:24:42;-1.40;99.90
8896;DHT22;4484;48.928;10.066;2024-01-30T05:27:09;-1.40;99.90
8896;DHT22;4484;48.928;10.066;2024-01-30T05:29:36;-1.40;99.90
8896;DHT22;4484;48.928;10.066;2024-01-30T05:32:04;-1.40;99.90
8896;DHT22;4484;48.928;10.066;2024-01-30T05:34:32;-1.50;99.90
8896;DHT22;4484;48.928;10.066;2024-01-30T05:36:59;-1.50;99.90
8896;DHT22;4484;48.928;10.066;2024-01-30T05:39:26;-1.50;99.90
8896;DHT22;4484;48.928;10.066;2024-01-30T05:41:53;-1.50;99.90
8896;DHT22;4484;48.928;10.066;2024-01-30T05:44:20;-1.50;99.90
8896;DHT22;4484;48.928;10.066;2024-01-30T05:46:46;-1.50;99.90
8896;DHT22;4484;48.928;10.066;2024-01-30T05:49:13;-1.50;99.90
8896;DHT22;4484;48.928;10.066;2024-01-30T05:51:40;-1.50;99.90
8896;DHT22;4484;48.928;10.066;2024-01-30T05:54:07;-1.50;99.90
8896;DHT22;4484;48.928;10.066;2024-01-30T05:56:34;-1.50;99.90
8896;DHT22;4484;48.928;10.066;2024-01-30T05:59:01;-1.50;99.90
8896;DHT22;4484;48.928;10.066;2024-01-30T06:01:27;-1.50;99.90
8896;DHT22;4484;48.928;10.066;2024-01-30T06:03:56;-1.60;99.90
8896;DHT22;4484;48.928;10.066;2024-01-30T06:06:22;-1.50;99.90
8896;DHT22;4484;48.928;10.066;2024-01-30T06:08:49;-1.50;99.90
8896;DHT22;4484;48.928;10.066;2024-01-30T06:11:16;-1.50;99.90
8896;DHT22;4484;48.928;10.066;2024-01-30T06:13:43;-1.60;99.90
8896;DHT22;4484;48.928;10.066;2024-01-30T06:16:10;-1.60;99.90
8896;DHT22;4484;48.928;10.066;2024-01-30T06:18:38;-1.60;99.90
8896;DHT22;4484;48.928;10.066;2024-01-30T06:21:05;-1.60;99.90
8896;DHT22;4484;48.928;10.066;2024-01-30T06:23:33;-1.60;99.90
8896;DHT22;4484;48.928;10.066;2024-01-30T06:26:00;-1.60;99.90
8896;DHT22;4484;48.928;10.066;2024-01-30T06:28:27;-1.60;99.90
8896;DHT22;4484;48.928;10.066;2024-01-30T06:30:54;-1.60;99.90
8896;DHT22;4484;48.928;10.066;2024-01-30T06:33:21;-1.60;99.90
8896;DHT22;4484;48.928;10.066;2024-01-30T06:35:48;-1.50;99.90
8896;DHT22;4484;48.928;10.066;2024-01-30T06:38:15;-1.50;99.90
8896;DHT22;4484;48.928;10.066;2024-01-30T06:40:42;-1.50;99.90
8896;DHT22;4484;48.928;10.066;2024-01-30T06:43:09;-1.50;99.90
8896;DHT22;4484;48.928;10.066;2024-01-30T06:45:36;-1.40;99.90
8896;DHT22;4484;48.928;10.066;2024-01-30T06:48:03;-1.40;99.90
8896;DHT22;4484;48.928;10.066;2024-01-30T06:50:30;-1.40;99.90
8896;DHT22;4484;48.928;10.066;2024-01-30T06:52:57;-1.30;99.90
8896;DHT22;4484;48.928;10.066;2024-01-30T06:55:24;-1.20;99.90
8896;DHT22;4484;48.928;10.066;2024-01-30T06:57:51;-1.20;99.90
8896;DHT22;4484;48.928;10.066;2024-01-30T07:00:18;-1.10;99.90
8896;DHT22;4484;48.928;10.066;2024-01-30T07:02:46;-1.10;99.90
8896;DHT22;4484;48.928;10.066;2024-01-30T07:05:13;-1.00;99.90
8896;DHT22;4484;48.928;10.066;2024-01-30T07:07:41;-0.90;99.90
8896;DHT22;4484;48.928;10.066;2024-01-30T07:10:08;-0.90;99.90
8896;DHT22;4484;48.928;10.066;2024-01-30T07:12:35;-0.80;99.90
8896;DHT22;4484;48.928;10.066;2024-01-30T07:15:01;-0.80;99.90
8896;DHT22;4484;48.928;10.066;2024-01-30T07:17:29;-0.70;99.90
8896;DHT22;4484;48.928;10.066;2024-01-30T07:19:56;-0.60;99.90
8896;DHT22;4484;48.928;10.066;2024-01-30T07:22:23;-0.60;99.90
8896;DHT22;4484;48.928;10.066;2024-01-30T07:24:50;-0.50;99.90
8896;DHT22;4484;48.928;10.066;2024-01-30T07:27:18;-0.40;99.90
8896;DHT22;4484;48.928;10.066;2024-01-30T07:29:45;-0.30;99.90
8896;DHT22;4484;48.928;10.066;2024-01-30T07:32:12;-0.20;99.90
8896;DHT22;4484;48.928;10.066;2024-01-30T07:34:39;-0.20;99.90
8896;DHT22;4484;48.928;10.066;2024-01-30T07:37:19;-0.10;99.90
8896;DHT22;4484;48.928;10.066;2024-01-30T07:39:47;0.00;99.90
8896;DHT22;4484;48.928;10.066;2024-01-30T07:42:14;0.10;99.90
8896;DHT22;4484;48.928;10.066;2024-01-30T07:44:40;0.20;99.90
8896;DHT22;4484;48.928;10.066;2024-01-30T07:47:07;0.30;99.90
8896;DHT22;4484;48.928;10.066;2024-01-30T07:49:34;0.40;99.90
8896;DHT22;4484;48.928;10.066;2024-01-30T07:52:01;0.40;99.90
8896;DHT22;4484;48.928;10.066;2024-01-30T07:54:31;0.50;99.90
8896;DHT22;4484;48.928;10.066;2024-01-30T07:57:27;0.60;99.90
8896;DHT22;4484;48.928;10.066;2024-01-30T07:59:54;0.80;99.90
8896;DHT22;4484;48.928;10.066;2024-01-30T08:02:21;0.90;99.90
8896;DHT22;4484;48.928;10.066;2024-01-30T08:04:48;1.00;99.90
8896;DHT22;4484;48.928;10.066;2024-01-30T08:07:16;1.10;99.90
8896;DHT22;4484;48.928;10.066;2024-01-30T08:09:44;1.30;99.90
8896;DHT22;4484;48.928;10.066;2024-01-30T08:12:11;1.40;99.90
8896;DHT22;4484;48.928;10.066;2024-01-30T08:14:39;1.50;99.90
8896;DHT22;4484;48.928;10.066;2024-01-30T08:17:07;1.60;99.90
8896;DHT22;4484;48.928;10.066;2024-01-30T08:19:34;1.80;99.90
8896;DHT22;4484;48.928;10.066;2024-01-30T08:22:01;2.00;99.90
8896;DHT22;4484;48.928;10.066;2024-01-30T08:24:28;2.20;99.90
8896;DHT22;4484;48.928;10.066;2024-01-30T08:26:55;2.40;99.90
8896;DHT22;4484;48.928;10.066;2024-01-30T08:29:22;2.60;99.90
8896;DHT22;4484;48.928;10.066;2024-01-30T08:31:49;2.90;99.90
8896;DHT22;4484;48.928;10.066;2024-01-30T08:34:16;3.10;99.90
8896;DHT22;4484;48.928;10.066;2024-01-30T08:36:43;3.30;99.90
8896;DHT22;4484;48.928;10.066;2024-01-30T08:39:11;3.50;99.90
8896;DHT22;4484;48.928;10.066;2024-01-30T08:41:37;3.60;99.90
8896;DHT22;4484;48.928;10.066;2024-01-30T08:44:04;3.80;99.90
8896;DHT22;4484;48.928;10.066;2024-01-30T08:46:31;3.90;99.90
8896;DHT22;4484;48.928;10.066;2024-01-30T08:48:58;4.10;99.90
8896;DHT22;4484;48.928;10.066;2024-01-30T08:51:25;4.20;99.90
8896;DHT22;4484;48.928;10.066;2024-01-30T08:53:52;4.30;99.90
8896;DHT22;4484;48.928;10.066;2024-01-30T08:56:20;4.40;99.90
8896;DHT22;4484;48.928;10.066;2024-01-30T08:58:47;4.50;99.90
8896;DHT22;4484;48.928;10.066;2024-01-30T09:01:14;4.60;99.90
8896;DHT22;4484;48.928;10.066;2024-01-30T09:03:41;4.80;99.90
8896;DHT22;4484;48.928;10.066;2024-01-30T09:06:11;4.90;99.90
8896;DHT22;4484;48.928;10.066;2024-01-30T09:08:38;5.00;99.90
8896;DHT22;4484;48.928;10.066;2024-01-30T09:11:09;5.20;99.90
8896;DHT22;4484;48.928;10.066;2024-01-30T09:13:36;5.40;99.90
8896;DHT22;4484;48.928;10.066;2024-01-30T09:16:04;5.50;99.90
8896;DHT22;4484;48.928;10.066;2024-01-30T09:18:31;5.60;99.90
8896;DHT22;4484;48.928;10.066;2024-01-30T09:20:58;5.60;99.90
8896;DHT22;4484;48.928;10.066;2024-01-30T09:23:27;5.70;99.90
8896;DHT22;4484;48.928;10.066;2024-01-30T09:25:54;5.80;99.90
8896;DHT22;4484;48.928;10.066;2024-01-30T09:28:21;5.90;99.90
8896;DHT22;4484;48.928;10.066;2024-01-30T09:30:53;6.10;99.90
8896;DHT22;4484;48.928;10.066;2024-01-30T09:33:19;6.20;99.90
8896;DHT22;4484;48.928;10.066;2024-01-30T09:35:46;6.40;99.90
8896;DHT22;4484;48.928;10.066;2024-01-30T09:38:13;6.60;99.90
8896;DHT22;4484;48.928;10.066;2024-01-30T09:40:40;6.80;99.90
8896;DHT22;4484;48.928;10.066;2024-01-30T09:43:11;7.20;99.90
8896;DHT22;4484;48.928;10.066;2024-01-30T09:45:44;7.60;99.90
8896;DHT22;4484;48.928;10.066;2024-01-30T09:48:12;8.10;99.90
8896;DHT22;4484;48.928;10.066;2024-01-30T09:50:39;8.60;99.90
8896;DHT22;4484;48.928;10.066;2024-01-30T09:53:08;9.20;99.90
8896;DHT22;4484;48.928;10.066;2024-01-30T09:55:36;9.70;99.90
8896;DHT22;4484;48.928;10.066;2024-01-30T09:58:03;10.30;99.90
8896;DHT22;4484;48.928;10.066;2024-01-30T10:00:30;10.70;99.90
8896;DHT22;4484;48.928;10.066;2024-01-30T10:02:57;11.00;99.90
8896;DHT22;4484;48.928;10.066;2024-01-30T10:05:27;11.20;99.90
8896;DHT22;4484;48.928;10.066;2024-01-30T10:07:56;11.40;99.90
8896;DHT22;4484;48.928;10.066;2024-01-30T10:10:24;11.60;99.90
8896;DHT22;4484;48.928;10.066;2024-01-30T10:12:51;11.70;99.90
8896;DHT22;4484;48.928;10.066;2024-01-30T10:15:18;11.80;99.90
8896;DHT22;4484;48.928;10.066;2024-01-30T10:17:48;11.90;99.90
8896;DHT22;4484;48.928;10.066;2024-01-30T10:20:15;12.10;99.90
8896;DHT22;4484;48.928;10.066;2024-01-30T10:22:42;12.30;99.90
8896;DHT22;4484;48.928;10.066;2024-01-30T10:25:11;12.30;99.90
8896;DHT22;4484;48.928;10.066;2024-01-30T10:27:39;12.40;99.90
8896;DHT22;4484;48.928;10.066;2024-01-30T10:30:07;12.40;99.90
8896;DHT22;4484;48.928;10.066;2024-01-30T10:32:34;12.50;99.90
8896;DHT22;4484;48.928;10.066;2024-01-30T10:35:01;12.50;99.90
8896;DHT22;4484;48.928;10.066;2024-01-30T10:37:30;12.60;99.70
8896;DHT22;4484;48.928;10.066;2024-01-30T10:40:03;12.80;99.10
8896;DHT22;4484;48.928;10.066;2024-01-30T10:42:32;13.10;98.20
8896;DHT22;4484;48.928;10.066;2024-01-30T10:45:12;13.30;96.90
8896;DHT22;4484;48.928;10.066;2024-01-30T10:47:40;13.70;97.60
8896;DHT22;4484;48.928;10.066;2024-01-30T10:50:08;14.00;96.10
8896;DHT22;4484;48.928;10.066;2024-01-30T10:52:37;14.30;94.60
8896;DHT22;4484;48.928;10.066;2024-01-30T10:55:05;14.60;93.60
8896;DHT22;4484;48.928;10.066;2024-01-30T10:57:34;14.70;91.40
8896;DHT22;4484;48.928;10.066;2024-01-30T11:00:07;14.70;91.30
8896;DHT22;4484;48.928;10.066;2024-01-30T11:02:45;14.50;90.00
8896;DHT22;4484;48.928;10.066;2024-01-30T11:05:13;14.40;90.30
8896;DHT22;4484;48.928;10.066;2024-01-30T11:07:42;14.20;89.40
8896;DHT22;4484;48.928;10.066;2024-01-30T11:10:09;14.10;90.60
8896;DHT22;4484;48.928;10.066;2024-01-30T11:12:40;14.30;90.50
8896;DHT22;4484;48.928;10.066;2024-01-30T11:15:16;14.40;89.60
8896;DHT22;4484;48.928;10.066;2024-01-30T11:20:25;14.10;87.00
8896;DHT22;4484;48.928;10.066;2024-01-30T11:22:54;14.00;87.70
8896;DHT22;4484;48.928;10.066;2024-01-30T11:25:21;14.00;86.30
8896;DHT22;4484;48.928;10.066;2024-01-30T11:27:54;13.90;86.50
8896;DHT22;4484;48.928;10.066;2024-01-30T11:30:31;13.90;86.30
8896;DHT22;4484;48.928;10.066;2024-01-30T11:35:34;14.20;86.00
8896;DHT22;4484;48.928;10.066;2024-01-30T11:38:02;14.40;87.40
8896;DHT22;4484;48.928;10.066;2024-01-30T11:40:30;14.70;87.10
8896;DHT22;4484;48.928;10.066;2024-01-30T11:43:02;14.90;84.50
8896;DHT22;4484;48.928;10.066;2024-01-30T11:45:30;14.80;82.50
8896;DHT22;4484;48.928;10.066;2024-01-30T11:47:58;14.50;83.50
8896;DHT22;4484;48.928;10.066;2024-01-30T11:50:27;14.30;84.20
8896;DHT22;4484;48.928;10.066;2024-01-30T11:52:54;14.10;84.60
8896;DHT22;4484;48.928;10.066;2024-01-30T11:55:21;13.80;86.40
8896;DHT22;4484;48.928;10.066;2024-01-30T11:57:48;13.60;86.90
8896;DHT22;4484;48.928;10.066;2024-01-30T12:00:16;13.60;89.20
8896;DHT22;4484;48.928;10.066;2024-01-30T12:02:48;13.60;90.00
8896;DHT22;4484;48.928;10.066;2024-01-30T12:05:16;13.60;90.40
8896;DHT22;4484;48.928;10.066;2024-01-30T12:07:46;13.60;90.10
8896;DHT22;4484;48.928;10.066;2024-01-30T12:10:13;13.60;90.00
8896;DHT22;4484;48.928;10.066;2024-01-30T12:12:42;13.50;89.90
8896;DHT22;4484;48.928;10.066;2024-01-30T12:15:10;13.40;90.60
8896;DHT22;4484;48.928;10.066;2024-01-30T12:17:37;13.30;90.70
8896;DHT22;4484;48.928;10.066;2024-01-30T12:22:31;13.10;91.00
8896;DHT22;4484;48.928;10.066;2024-01-30T12:24:58;13.10;91.50
8896;DHT22;4484;48.928;10.066;2024-01-30T12:27:25;13.00;92.00
8896;DHT22;4484;48.928;10.066;2024-01-30T12:29:58;13.10;92.40
8896;DHT22;4484;48.928;10.066;2024-01-30T12:32:25;13.10;92.50
8896;DHT22;4484;48.928;10.066;2024-01-30T12:34:55;13.20;92.90
8896;DHT22;4484;48.928;10.066;2024-01-30T12:37:28;13.20;91.90
8896;DHT22;4484;48.928;10.066;2024-01-30T12:39:56;13.20;91.40
8896;DHT22;4484;48.928;10.066;2024-01-30T12:42:23;13.20;92.20
8896;DHT22;4484;48.928;10.066;2024-01-30T12:44:50;13.20;91.80
8896;DHT22;4484;48.928;10.066;2024-01-30T12:47:17;13.20;92.10
8896;DHT22;4484;48.928;10.066;2024-01-30T12:49:44;13.30;92.50
8896;DHT22;4484;48.928;10.066;2024-01-30T12:52:12;13.40;92.70
8896;DHT22;4484;48.928;10.066;2024-01-30T12:54:39;13.50;92.00
8896;DHT22;4484;48.928;10.066;2024-01-30T12:57:06;13.50;91.40
8896;DHT22;4484;48.928;10.066;2024-01-30T12:59:33;13.50;91.00
8896;DHT22;4484;48.928;10.066;2024-01-30T13:02:01;13.40;91.40
8896;DHT22;4484;48.928;10.066;2024-01-30T13:04:29;13.40;91.40
8896;DHT22;4484;48.928;10.066;2024-01-30T13:06:57;13.30;91.10
8896;DHT22;4484;48.928;10.066;2024-01-30T13:09:24;13.30;91.20
8896;DHT22;4484;48.928;10.066;2024-01-30T13:11:51;13.10;91.10
8896;DHT22;4484;48.928;10.066;2024-01-30T13:14:19;13.10;91.60
8896;DHT22;4484;48.928;10.066;2024-01-30T13:16:46;13.10;91.50
8896;DHT22;4484;48.928;10.066;2024-01-30T13:19:15;13.20;91.50
8896;DHT22;4484;48.928;10.066;2024-01-30T13:21:42;13.20;91.30
8896;DHT22;4484;48.928;10.066;2024-01-30T13:24:09;13.40;91.90
8896;DHT22;4484;48.928;10.066;2024-01-30T13:26:36;13.60;91.40
8896;DHT22;4484;48.928;10.066;2024-01-30T13:29:03;13.80;91.00
8896;DHT22;4484;48.928;10.066;2024-01-30T13:31:30;13.90;90.80
8896;DHT22;4484;48.928;10.066;2024-01-30T13:33:57;14.10;91.60
8896;DHT22;4484;48.928;10.066;2024-01-30T13:36:24;14.30;90.70
8896;DHT22;4484;48.928;10.066;2024-01-30T13:38:51;14.30;90.60
8896;DHT22;4484;48.928;10.066;2024-01-30T13:41:18;14.30;90.40
8896;DHT22;4484;48.928;10.066;2024-01-30T13:43:45;14.20;90.40
8896;DHT22;4484;48.928;10.066;2024-01-30T13:46:12;14.20;90.90
8896;DHT22;4484;48.928;10.066;2024-01-30T13:48:38;14.20;90.70
8896;DHT22;4484;48.928;10.066;2024-01-30T13:51:05;14.30;90.80
8896;DHT22;4484;48.928;10.066;2024-01-30T13:53:32;14.30;91.00
8896;DHT22;4484;48.928;10.066;2024-01-30T13:55:59;14.30;90.60
8896;DHT22;4484;48.928;10.066;2024-01-30T13:58:26;14.10;90.30
8896;DHT22;4484;48.928;10.066;2024-01-30T14:00:54;13.90;90.20
8896;DHT22;4484;48.928;10.066;2024-01-30T14:03:20;13.70;90.80
8896;DHT22;4484;48.928;10.066;2024-01-30T14:05:47;13.50;91.20
8896;DHT22;4484;48.928;10.066;2024-01-30T14:08:15;13.40;91.40
8896;DHT22;4484;48.928;10.066;2024-01-30T14:10:42;13.20;92.00
8896;DHT22;4484;48.928;10.066;2024-01-30T14:13:09;13.20;92.60
8896;DHT22;4484;48.928;10.066;2024-01-30T14:15:37;13.10;92.70
8896;DHT22;4484;48.928;10.066;2024-01-30T14:18:04;13.10;93.00
8896;DHT22;4484;48.928;10.066;2024-01-30T14:20:32;13.00;92.90
8896;DHT22;4484;48.928;10.066;2024-01-30T14:22:59;12.80;93.00
8896;DHT22;4484;48.928;10.066;2024-01-30T14:25:25;12.70;93.10
8896;DHT22;4484;48.928;10.066;2024-01-30T14:27:52;12.70;93.60
8896;DHT22;4484;48.928;10.066;2024-01-30T14:30:19;12.60;93.40
8896;DHT22;4484;48.928;10.066;2024-01-30T14:32:46;12.50;93.40
8896;DHT22;4484;48.928;10.066;2024-01-30T14:35:14;12.40;93.70
8896;DHT22;4484;48.928;10.066;2024-01-30T14:37:41;12.30;93.90
8896;DHT22;4484;48.928;10.066;2024-01-30T14:40:08;12.30;94.50
8896;DHT22;4484;48.928;10.066;2024-01-30T14:42:36;12.30;94.60
8896;DHT22;4484;48.928;10.066;2024-01-30T14:45:06;12.30;94.90
8896;DHT22;4484;48.928;10.066;2024-01-30T14:47:33;12.20;94.90
8896;DHT22;4484;48.928;10.066;2024-01-30T14:50:02;12.20;94.90
8896;DHT22;4484;48.928;10.066;2024-01-30T14:52:33;12.20;94.80
8896;DHT22;4484;48.928;10.066;2024-01-30T14:55:00;12.00;94.60
8896;DHT22;4484;48.928;10.066;2024-01-30T14:57:27;11.90;94.80
8896;DHT22;4484;48.928;10.066;2024-01-30T14:59:56;11.80;95.00
8896;DHT22;4484;48.928;10.066;2024-01-30T15:02:23;11.60;95.50
8896;DHT22;4484;48.928;10.066;2024-01-30T15:04:49;11.60;95.50
8896;DHT22;4484;48.928;10.066;2024-01-30T15:07:17;11.50;96.00
8896;DHT22;4484;48.928;10.066;2024-01-30T15:09:58;11.40;95.50
8896;DHT22;4484;48.928;10.066;2024-01-30T15:12:25;11.20;95.60
8896;DHT22;4484;48.928;10.066;2024-01-30T15:14:52;11.10;95.80
8896;DHT22;4484;48.928;10.066;2024-01-30T15:17:19;11.00;96.00
8896;DHT22;4484;48.928;10.066;2024-01-30T15:19:49;10.90;96.50
8896;DHT22;4484;48.928;10.066;2024-01-30T15:22:18;10.80;96.60
8896;DHT22;4484;48.928;10.066;2024-01-30T15:24:45;10.70;96.70
8896;DHT22;4484;48.928;10.066;2024-01-30T15:27:12;10.60;97.20
8896;DHT22;4484;48.928;10.066;2024-01-30T15:29:38;10.50;97.80
8896;DHT22;4484;48.928;10.066;2024-01-30T15:32:06;10.40;98.60
8896;DHT22;4484;48.928;10.066;2024-01-30T15:34:33;10.40;99.20
8896;DHT22;4484;48.928;10.066;2024-01-30T15:37:01;10.30;99.90
8896;DHT22;4484;48.928;10.066;2024-01-30T15:39:28;10.20;99.90
8896;DHT22;4484;48.928;10.066;2024-01-30T15:41:55;10.10;99.90
8896;DHT22;4484;48.928;10.066;2024-01-30T15:44:22;10.00;99.90
8896;DHT22;4484;48.928;10.066;2024-01-30T15:46:49;9.80;99.90
8896;DHT22;4484;48.928;10.066;2024-01-30T15:49:16;9.70;99.90
8896;DHT22;4484;48.928;10.066;2024-01-30T15:51:43;9.60;99.90
8896;DHT22;4484;48.928;10.066;2024-01-30T15:54:10;9.50;99.90
8896;DHT22;4484;48.928;10.066;2024-01-30T15:56:37;9.30;99.90
8896;DHT22;4484;48.928;10.066;2024-01-30T15:59:05;9.30;99.90